createdAt,value
2022-08-20T00:01:44.854Z,17.83
2022-08-20T00:03:50.107Z,17.87
2022-08-20T00:05:47.946Z,17.79
2022-08-20T00:07:49.675Z,17.82
2022-08-20T00:09:51.361Z,17.78
2022-08-20T00:11:52.574Z,17.76
2022-08-20T00:13:54.033Z,17.71
2022-08-20T00:15:55.904Z,17.63
2022-08-20T00:17:57.304Z,17.6
2022-08-20T00:19:58.358Z,17.66
2022-08-20T00:22:00.024Z,17.56
2022-08-20T00:24:01.801Z,17.51
2022-08-20T00:26:02.975Z,17.47
2022-08-20T00:28:04.819Z,17.51
2022-08-20T00:30:06.000Z,17.51
2022-08-20T00:32:07.019Z,17.47
2022-08-20T00:34:08.627Z,17.42
2022-08-20T00:36:09.612Z,17.5
2022-08-20T00:38:11.102Z,17.46
2022-08-20T00:42:14.672Z,17.33
2022-08-20T00:44:15.834Z,17.32
2022-08-20T00:46:16.766Z,17.27
2022-08-20T00:48:18.260Z,17.34
2022-08-20T00:50:19.162Z,17.32
2022-08-20T00:52:20.363Z,17.31
2022-08-20T00:54:21.271Z,17.34
2022-08-20T00:56:22.893Z,17.34
2022-08-20T00:58:24.123Z,17.31
2022-08-20T01:00:25.946Z,17.19
2022-08-20T01:02:26.834Z,17.14
2022-08-20T01:04:28.636Z,17.28
2022-08-20T01:06:29.877Z,17.23
2022-08-20T01:08:31.474Z,17.17
2022-08-20T01:10:33.171Z,17.24
2022-08-20T01:12:34.139Z,17.12
2022-08-20T01:14:35.199Z,17.09
2022-08-20T01:16:36.897Z,17.09
2022-08-20T01:18:38.215Z,17.06
2022-08-20T01:20:39.631Z,17.14
2022-08-20T01:22:40.691Z,17.08
2022-08-20T01:24:41.952Z,17.02
2022-08-20T01:26:43.289Z,16.93
2022-08-20T01:28:44.585Z,16.85
2022-08-20T01:30:46.240Z,16.81
2022-08-20T01:32:47.178Z,16.87
2022-08-20T01:34:48.472Z,16.9
2022-08-20T01:36:49.732Z,16.91
2022-08-20T01:38:54.376Z,16.87
2022-08-20T01:40:52.174Z,16.83
2022-08-20T01:42:58.946Z,16.79
2022-08-20T01:44:54.665Z,16.74
2022-08-20T01:46:55.679Z,16.65
2022-08-20T01:48:57.438Z,16.62
2022-08-20T01:50:58.794Z,16.73
2022-08-20T01:52:59.990Z,16.77
2022-08-20T01:55:01.546Z,16.68
2022-08-20T01:57:02.939Z,16.61
2022-08-20T01:59:04.402Z,16.58
2022-08-20T02:01:05.761Z,16.64
2022-08-20T02:03:07.530Z,16.61
2022-08-20T02:05:08.720Z,16.5
2022-08-20T02:07:09.911Z,16.4
2022-08-20T02:09:14.363Z,16.39
2022-08-20T02:11:12.658Z,16.41
2022-08-20T02:13:14.524Z,16.34
2022-08-20T02:15:16.775Z,16.39
2022-08-20T02:17:18.214Z,16.3
2022-08-20T02:19:19.403Z,16.32
2022-08-20T02:21:21.058Z,16.39
2022-08-20T02:23:21.862Z,16.46
2022-08-20T02:25:23.224Z,16.62
2022-08-20T02:27:24.228Z,16.64
2022-08-20T02:29:25.212Z,16.66
2022-08-20T02:31:26.778Z,16.7
2022-08-20T02:33:28.547Z,16.78
2022-08-20T02:35:29.471Z,16.78
2022-08-20T02:37:30.971Z,16.73
2022-08-20T02:39:32.083Z,16.73
2022-08-20T02:41:32.957Z,16.7
2022-08-20T02:43:34.091Z,16.74
2022-08-20T02:45:35.130Z,16.74
2022-08-20T02:47:36.125Z,16.73
2022-08-20T02:49:37.313Z,16.73
2022-08-20T02:51:38.914Z,16.77
2022-08-20T02:53:40.448Z,16.8
2022-08-20T02:55:41.732Z,16.64
2022-08-20T02:57:43.173Z,16.58
2022-08-20T02:59:44.445Z,16.51
2022-08-20T03:01:45.571Z,16.51
2022-08-20T03:03:47.087Z,16.59
2022-08-20T03:05:48.197Z,16.7
2022-08-20T03:07:49.594Z,16.7
2022-08-20T03:09:50.487Z,16.73
2022-08-20T03:11:52.189Z,16.77
2022-08-20T03:13:53.840Z,16.76
2022-08-20T03:15:58.540Z,16.72
2022-08-20T03:17:57.006Z,16.77
2022-08-20T03:19:58.576Z,16.78
2022-08-20T03:21:59.743Z,16.85
2022-08-20T03:24:01.246Z,16.87
2022-08-20T03:26:03.098Z,16.87
2022-08-20T03:28:04.244Z,16.85
2022-08-20T03:30:05.271Z,16.81
2022-08-20T03:32:07.848Z,16.8
2022-08-20T03:34:08.832Z,16.77
2022-08-20T03:36:10.106Z,16.74
2022-08-20T03:38:11.911Z,16.83
2022-08-20T03:40:13.698Z,16.91
2022-08-20T03:42:14.900Z,16.99
2022-08-20T03:44:15.920Z,17.08
2022-08-20T03:46:21.948Z,17.04
2022-08-20T03:48:18.887Z,16.92
2022-08-20T03:50:22.831Z,16.82
2022-08-20T03:52:21.681Z,16.79
2022-08-20T03:54:23.256Z,16.77
2022-08-20T03:56:24.760Z,16.67
2022-08-20T03:58:30.111Z,16.66
2022-08-20T04:00:27.537Z,16.61
2022-08-20T04:02:29.085Z,16.68
2022-08-20T04:04:30.529Z,16.76
2022-08-20T04:06:31.792Z,16.82
2022-08-20T04:08:33.100Z,16.85
2022-08-20T04:10:34.426Z,16.88
2022-08-20T04:12:35.799Z,16.84
2022-08-20T04:14:37.117Z,16.83
2022-08-20T04:16:38.372Z,16.83
2022-08-20T04:18:39.646Z,16.82
2022-08-20T04:20:41.281Z,16.8
2022-08-20T04:23:25.920Z,16.86
2022-08-20T04:25:27.227Z,16.96
2022-08-20T04:27:29.097Z,17.02
2022-08-20T04:29:32.314Z,17.04
2022-08-20T04:31:32.558Z,17.09
2022-08-20T04:33:35.545Z,17.11
2022-08-20T04:35:35.165Z,17.1
2022-08-20T04:37:36.916Z,17.11
2022-08-20T04:39:38.340Z,17.12
2022-08-20T04:41:39.531Z,17.17
2022-08-20T04:43:41.400Z,17.23
2022-08-20T04:45:43.169Z,17.27
2022-08-20T04:47:44.804Z,17.22
2022-08-20T04:49:46.055Z,17.23
2022-08-20T04:51:47.229Z,17.28
2022-08-20T04:53:50.406Z,17.33
2022-08-20T04:55:49.613Z,17.32
2022-08-20T04:57:50.937Z,17.34
2022-08-20T04:59:52.321Z,17.34
2022-08-20T05:01:53.102Z,17.36
2022-08-20T05:03:53.997Z,17.38
2022-08-20T05:05:54.917Z,17.41
2022-08-20T05:07:56.554Z,17.43
2022-08-20T05:09:57.522Z,17.48
2022-08-20T05:11:58.925Z,17.53
2022-08-20T05:14:00.680Z,17.55
2022-08-20T05:16:02.397Z,17.6
2022-08-20T05:18:04.235Z,17.65
2022-08-20T05:22:07.182Z,17.72
2022-08-20T05:24:08.411Z,17.72
2022-08-20T05:26:09.597Z,17.76
2022-08-20T05:28:10.816Z,17.8
2022-08-20T05:30:13.462Z,17.8
2022-08-20T05:32:13.598Z,17.84
2022-08-20T05:34:14.460Z,17.87
2022-08-20T05:36:16.285Z,17.89
2022-08-20T05:38:17.519Z,17.92
2022-08-20T05:40:19.007Z,17.92
2022-08-20T05:42:20.023Z,17.94
2022-08-20T05:44:21.180Z,17.93
2022-08-20T05:46:22.560Z,17.9
2022-08-20T05:48:24.332Z,18
2022-08-20T05:50:25.412Z,17.97
2022-08-20T05:52:26.925Z,18.06
2022-08-20T05:54:28.542Z,18.08
2022-08-20T05:56:29.761Z,18.16
2022-08-20T05:58:31.005Z,18.19
2022-08-20T06:00:32.738Z,18.26
2022-08-20T06:02:34.475Z,18.32
2022-08-20T06:04:35.891Z,18.38
2022-08-20T06:06:45.377Z,18.47
2022-08-20T06:08:38.159Z,18.48
2022-08-20T06:10:39.156Z,18.51
2022-08-20T06:12:40.185Z,18.61
2022-08-20T06:14:41.808Z,18.72
2022-08-20T06:16:46.787Z,18.82
2022-08-20T06:18:43.958Z,18.91
2022-08-20T06:20:45.500Z,18.92
2022-08-20T06:22:46.851Z,19.01
2022-08-20T06:24:48.006Z,19.04
2022-08-20T06:26:49.314Z,19.12
2022-08-20T06:28:50.365Z,19.22
2022-08-20T06:30:51.994Z,19.28
2022-08-20T06:32:53.013Z,19.36
2022-08-20T06:34:54.823Z,19.36
2022-08-20T06:36:56.562Z,19.44
2022-08-20T06:38:58.400Z,19.5
2022-08-20T06:40:59.415Z,19.55
2022-08-20T06:43:00.870Z,19.56
2022-08-20T06:45:02.150Z,19.59
2022-08-20T06:47:03.286Z,19.72
2022-08-20T06:49:04.830Z,19.79
2022-08-20T06:51:06.540Z,19.81
2022-08-20T06:53:08.571Z,20
2022-08-20T06:55:09.340Z,20.12
2022-08-20T06:57:10.641Z,20.27
2022-08-20T06:59:12.299Z,20.09
2022-08-20T07:01:13.758Z,20.16
2022-08-20T07:03:14.484Z,20.11
2022-08-20T07:05:16.075Z,20.18
2022-08-20T07:07:17.854Z,20.09
2022-08-20T07:09:19.152Z,20.18
2022-08-20T07:11:23.724Z,20.32
2022-08-20T07:13:21.771Z,20.24
2022-08-20T07:15:23.197Z,20.31
2022-08-20T07:17:24.484Z,20.37
2022-08-20T07:19:26.236Z,20.69
2022-08-20T07:21:27.924Z,20.62
2022-08-20T07:23:29.628Z,20.56
2022-08-20T07:25:31.320Z,20.66
2022-08-20T07:27:32.479Z,20.82
2022-08-20T07:29:33.481Z,20.69
2022-08-20T07:31:35.208Z,20.84
2022-08-20T07:33:36.542Z,20.83
2022-08-20T07:35:37.700Z,21.1
2022-08-20T07:37:39.015Z,21.35
2022-08-20T07:39:39.937Z,21.42
2022-08-20T07:41:41.194Z,21.74
2022-08-20T07:43:42.359Z,21.76
2022-08-20T07:45:48.002Z,21.58
2022-08-20T07:47:44.897Z,21.61
2022-08-20T07:49:45.796Z,21.83
2022-08-20T07:51:46.632Z,21.81
2022-08-20T07:53:47.403Z,21.69
2022-08-20T07:55:52.851Z,22.07
2022-08-20T07:57:50.410Z,21.81
2022-08-20T07:59:52.122Z,21.69
2022-08-20T08:01:53.514Z,21.86
2022-08-20T08:03:54.900Z,21.93
2022-08-20T08:05:56.064Z,22.04
2022-08-20T08:07:57.056Z,22.26
2022-08-20T08:09:57.913Z,21.9
2022-08-20T08:11:59.458Z,22.03
2022-08-20T08:14:00.982Z,22.22
2022-08-20T08:16:03.347Z,21.99
2022-08-20T08:18:04.730Z,21.71
2022-08-20T08:20:05.764Z,21.84
2022-08-20T08:22:07.140Z,21.73
2022-08-20T08:24:08.540Z,21.9
2022-08-20T08:26:15.807Z,22.27
2022-08-20T08:28:11.690Z,21.97
2022-08-20T08:30:13.373Z,22.1
2022-08-20T08:32:14.443Z,22.18
2022-08-20T08:34:15.290Z,22.44
2022-08-20T08:36:16.986Z,22.3
2022-08-20T08:38:18.564Z,22.4
2022-08-20T08:40:20.125Z,22.18
2022-08-20T08:42:21.990Z,22.15
2022-08-20T08:44:23.200Z,22.01
2022-08-20T08:48:26.527Z,21.88
2022-08-20T08:50:44.047Z,21.99
2022-08-20T08:52:29.127Z,21.85
2022-08-20T08:54:30.608Z,21.69
2022-08-20T08:56:31.727Z,21.65
2022-08-20T08:58:32.881Z,21.38
2022-08-20T09:00:33.996Z,21.3
2022-08-20T09:02:35.740Z,21.06
2022-08-20T09:04:36.624Z,20.79
2022-08-20T09:06:37.892Z,20.62
2022-08-20T09:08:38.741Z,20.4
2022-08-20T09:10:39.672Z,20.34
2022-08-20T09:12:43.340Z,20.32
2022-08-20T09:14:42.199Z,20.29
2022-08-20T09:16:44.723Z,20.29
2022-08-20T09:18:44.378Z,20.33
2022-08-20T09:20:45.367Z,20.38
2022-08-20T09:22:46.541Z,20.45
2022-08-20T09:24:48.183Z,20.49
2022-08-20T09:28:52.216Z,20.51
2022-08-20T09:30:52.009Z,20.59
2022-08-20T09:32:53.639Z,20.53
2022-08-20T09:34:54.823Z,20.63
2022-08-20T09:36:56.594Z,20.61
2022-08-20T09:38:58.110Z,20.7
2022-08-20T09:40:59.475Z,20.77
2022-08-20T09:43:00.937Z,20.74
2022-08-20T09:45:02.711Z,20.69
2022-08-20T09:47:04.089Z,20.62
2022-08-20T09:49:05.438Z,20.79
2022-08-20T09:51:06.789Z,20.91
2022-08-20T09:53:07.950Z,21.32
2022-08-20T09:55:09.210Z,21.48
2022-08-20T09:57:11.691Z,21.53
2022-08-20T09:59:13.038Z,21.7
2022-08-20T10:01:14.846Z,21.61
2022-08-20T10:03:15.762Z,21.83
2022-08-20T10:05:16.856Z,21.65
2022-08-20T10:07:18.294Z,21.72
2022-08-20T10:09:20.082Z,22.17
2022-08-20T10:11:20.954Z,22.76
2022-08-20T10:13:22.703Z,23.56
2022-08-20T10:15:23.714Z,23.62
2022-08-20T10:17:24.556Z,23.9
2022-08-20T10:19:26.090Z,24.47
2022-08-20T10:21:27.298Z,24.09
2022-08-20T10:23:28.538Z,23.6
2022-08-20T10:25:30.125Z,23.91
2022-08-20T10:27:31.137Z,23.9
2022-08-20T10:29:32.236Z,23.87
2022-08-20T10:31:33.442Z,24.16
2022-08-20T10:33:34.474Z,23.73
2022-08-20T10:35:36.177Z,23.69
2022-08-20T10:37:37.655Z,23.45
2022-08-20T10:39:38.889Z,23.29
2022-08-20T10:41:40.210Z,23.6
2022-08-20T10:43:41.499Z,24.2
2022-08-20T10:45:43.204Z,24.52
2022-08-20T10:47:44.218Z,23.87
2022-08-20T10:49:45.530Z,23.9
2022-08-20T10:51:47.473Z,24.32
2022-08-20T10:53:48.913Z,23.8
2022-08-20T10:55:50.711Z,22.8
2022-08-20T10:57:51.691Z,21.74
2022-08-20T10:59:52.579Z,21.06
2022-08-20T11:01:54.351Z,20.96
2022-08-20T11:03:55.515Z,20.6
2022-08-20T11:05:57.219Z,20.38
2022-08-20T11:06:40.885Z,20.38
2022-08-20T11:08:42.081Z,20.31
2022-08-20T11:10:43.122Z,20.2
2022-08-20T11:12:45.504Z,20.12
2022-08-20T11:14:46.559Z,20.1
2022-08-20T11:16:47.485Z,19.99
2022-08-20T11:18:49.021Z,20.04
2022-08-20T11:20:50.005Z,20.09
2022-08-20T11:22:51.118Z,20.16
2022-08-20T11:24:52.829Z,20.08
2022-08-20T11:26:53.924Z,20.08
2022-08-20T11:28:55.266Z,20.12
2022-08-20T11:30:56.973Z,20.02
2022-08-20T11:32:58.104Z,19.91
2022-08-20T11:34:59.326Z,19.96
2022-08-20T11:37:00.173Z,19.73
2022-08-20T11:39:01.829Z,19.35
2022-08-20T11:41:03.518Z,19.14
2022-08-20T11:43:16.111Z,19.11
2022-08-20T11:45:06.512Z,19.04
2022-08-20T11:47:07.483Z,19.02
2022-08-20T11:49:08.608Z,18.88
2022-08-20T11:51:10.353Z,18.73
2022-08-20T11:53:12.123Z,18.74
2022-08-20T11:55:13.554Z,18.79
2022-08-20T11:57:15.044Z,18.83
2022-08-20T11:59:16.400Z,18.74
2022-08-20T12:01:17.690Z,18.73
2022-08-20T12:03:18.827Z,18.8
2022-08-20T12:05:20.042Z,19.05
2022-08-20T12:07:21.565Z,19.13
2022-08-20T12:09:24.799Z,19.3
2022-08-20T12:11:24.699Z,19.34
2022-08-20T12:13:31.093Z,19.56
2022-08-20T12:15:28.081Z,19.51
2022-08-20T12:17:29.550Z,19.56
2022-08-20T12:19:30.698Z,19.53
2022-08-20T12:21:32.505Z,19.58
2022-08-20T12:23:33.303Z,19.71
2022-08-20T12:25:34.650Z,19.66
2022-08-20T12:27:35.676Z,19.88
2022-08-20T12:29:36.658Z,20.04
2022-08-20T12:31:37.671Z,19.92
2022-08-20T12:33:38.712Z,20.12
2022-08-20T12:35:40.294Z,20.1
2022-08-20T12:37:42.512Z,20.15
2022-08-20T12:39:43.453Z,20.12
2022-08-20T12:41:44.865Z,20.31
2022-08-20T12:43:46.153Z,20.37
2022-08-20T12:47:49.137Z,20.38
2022-08-20T12:49:50.288Z,20.43
2022-08-20T12:51:51.576Z,20.4
2022-08-20T12:53:53.013Z,20.55
2022-08-20T12:55:54.283Z,20.55
2022-08-20T12:57:55.340Z,20.56
2022-08-20T12:59:57.045Z,20.58
2022-08-20T13:01:58.815Z,20.58
2022-08-20T13:04:00.195Z,20.53
2022-08-20T13:06:01.671Z,20.5
2022-08-20T13:08:02.890Z,20.53
2022-08-20T13:10:04.428Z,20.65
2022-08-20T13:12:05.514Z,20.7
2022-08-20T13:14:06.664Z,20.81
2022-08-20T13:16:07.890Z,20.84
2022-08-20T13:18:08.995Z,20.87
2022-08-20T13:20:10.572Z,21.14
2022-08-20T13:22:11.870Z,21.25
2022-08-20T13:24:13.484Z,21.31
2022-08-20T13:26:14.681Z,21.48
2022-08-20T13:28:16.139Z,21.53
2022-08-20T13:30:17.412Z,21.59
2022-08-20T13:32:18.703Z,21.63
2022-08-20T13:34:19.770Z,21.64
2022-08-20T13:36:20.888Z,21.77
2022-08-20T13:38:22.593Z,22.01
2022-08-20T13:40:24.053Z,22.1
2022-08-20T13:42:25.045Z,22.43
2022-08-20T13:44:27.709Z,22.39
2022-08-20T13:46:27.847Z,22.31
2022-08-20T13:48:28.974Z,22.4
2022-08-20T13:50:29.850Z,22.61
2022-08-20T13:52:31.173Z,22.84
2022-08-20T13:54:32.688Z,22.93
2022-08-20T13:56:34.342Z,23.13
2022-08-20T13:58:36.042Z,23.05
2022-08-20T14:00:36.948Z,23.2
2022-08-20T14:02:37.902Z,23.4
2022-08-20T14:04:38.792Z,23.51
2022-08-20T14:06:40.423Z,23.78
2022-08-20T14:08:42.088Z,23.79
2022-08-20T14:10:43.625Z,23.93
2022-08-20T14:12:45.012Z,23.82
2022-08-20T14:14:46.627Z,23.78
2022-08-20T14:16:48.024Z,23.48
2022-08-20T14:18:52.309Z,23.43
2022-08-20T14:20:50.370Z,23.54
2022-08-20T14:22:51.867Z,23.64
2022-08-20T14:24:53.004Z,24
2022-08-20T14:28:55.253Z,24.34
2022-08-20T14:30:56.680Z,24.5
2022-08-20T14:32:58.105Z,24.56
2022-08-20T14:34:58.839Z,24.61
2022-08-20T14:36:59.687Z,24.56
2022-08-20T14:39:01.268Z,24.43
2022-08-20T14:41:02.564Z,24.5
2022-08-20T14:43:04.323Z,24.25
2022-08-20T14:45:05.755Z,24.06
2022-08-20T14:47:07.050Z,23.77
2022-08-20T14:49:08.036Z,23.72
2022-08-20T14:51:09.731Z,23.56
2022-08-20T14:53:11.445Z,23.41
2022-08-20T14:55:12.471Z,23.53
2022-08-20T14:57:13.854Z,23.42
2022-08-20T14:59:15.193Z,23.45
2022-08-20T15:01:16.249Z,23.31
2022-08-20T15:03:17.146Z,23.34
2022-08-20T15:05:17.999Z,23.4
2022-08-20T15:07:19.367Z,23.54
2022-08-20T15:09:20.714Z,23.56
2022-08-20T15:11:21.742Z,23.5
2022-08-20T15:13:23.096Z,23.57
2022-08-20T15:15:24.399Z,23.51
2022-08-20T15:17:25.615Z,23.62
2022-08-20T15:19:26.861Z,23.52
2022-08-20T15:21:28.527Z,24.32
2022-08-20T15:23:29.536Z,25.34
2022-08-20T15:25:36.296Z,25.08
2022-08-20T15:27:31.936Z,25.82
2022-08-20T15:29:33.224Z,26.43
2022-08-20T15:31:34.051Z,25.97
2022-08-20T15:33:35.653Z,25.77
2022-08-20T15:35:36.651Z,24.7
2022-08-20T15:37:37.707Z,24.8
2022-08-20T15:39:38.646Z,24.63
2022-08-20T15:41:40.275Z,25.06
2022-08-20T15:43:41.818Z,24.82
2022-08-20T15:45:43.349Z,25.08
2022-08-20T15:47:44.186Z,25.15
2022-08-20T15:49:45.457Z,25.2
2022-08-20T15:51:47.076Z,24.88
2022-08-20T15:53:48.744Z,24.79
2022-08-20T15:55:49.870Z,24.4
2022-08-20T15:57:50.818Z,24.75
2022-08-20T15:59:51.767Z,25.42
2022-08-20T16:01:52.601Z,25.75
2022-08-20T16:03:53.474Z,25.28
2022-08-20T16:05:54.264Z,25.32
2022-08-20T16:09:56.436Z,25.34
2022-08-20T16:11:57.802Z,25.51
2022-08-20T16:13:59.076Z,26.31
2022-08-20T16:16:00.517Z,26.61
2022-08-20T16:18:02.238Z,26.22
2022-08-20T16:20:03.766Z,25.98
2022-08-20T16:22:04.861Z,25.81
2022-08-20T16:24:06.264Z,25.56
2022-08-20T16:26:07.156Z,25.34
2022-08-20T16:28:08.787Z,24.86
2022-08-20T16:30:10.513Z,24.54
2022-08-20T16:32:11.784Z,24.48
2022-08-20T16:34:28.157Z,24.36
2022-08-20T16:36:14.768Z,24.34
2022-08-20T16:38:20.814Z,24.36
2022-08-20T16:40:17.907Z,24.27
2022-08-20T16:42:19.374Z,24.26
2022-08-20T16:44:20.946Z,24.43
2022-08-20T16:46:22.468Z,24.91
2022-08-20T16:48:23.852Z,25.1
2022-08-20T16:50:25.171Z,25.12
2022-08-20T16:52:26.362Z,25
2022-08-20T16:54:28.192Z,24.57
2022-08-20T16:56:28.395Z,24.36
2022-08-20T16:58:29.471Z,24.48
2022-08-20T17:00:30.364Z,24.46
2022-08-20T17:02:31.639Z,24.73
2022-08-20T17:04:33.034Z,25.1
2022-08-20T17:06:35.416Z,25.42
2022-08-20T17:08:35.571Z,25.7
2022-08-20T17:10:36.493Z,25.59
2022-08-20T17:12:38.086Z,25.63
2022-08-20T17:14:39.653Z,25.8
2022-08-20T17:16:40.509Z,25.97
2022-08-20T17:18:41.807Z,26.13
2022-08-20T17:20:43.275Z,26.26
2022-08-20T17:22:44.079Z,26.53
2022-08-20T17:24:45.046Z,26.8
2022-08-20T17:26:46.845Z,26.39
2022-08-20T17:28:48.116Z,26.35
2022-08-20T17:30:49.660Z,26.1
2022-08-20T17:32:52.696Z,25.73
2022-08-20T17:34:51.857Z,25.42
2022-08-20T17:36:53.479Z,25.04
2022-08-20T17:38:54.805Z,24.58
2022-08-20T17:40:55.665Z,24.27
2022-08-20T17:42:57.340Z,24.02
2022-08-20T17:44:58.752Z,23.81
2022-08-20T17:46:59.850Z,23.65
2022-08-20T17:49:01.005Z,23.44
2022-08-20T17:51:02.050Z,23.22
2022-08-20T17:51:54.808Z,23.03
2022-08-20T17:53:56.521Z,22.66
2022-08-20T17:55:58.480Z,22.55
2022-08-20T17:58:00.073Z,22.5
2022-08-20T18:00:02.266Z,22.43
2022-08-20T18:02:02.872Z,22.32
2022-08-20T18:04:04.515Z,22.23
2022-08-20T18:06:05.733Z,22.15
2022-08-20T18:08:07.422Z,22.05
2022-08-20T18:10:08.830Z,21.97
2022-08-20T18:12:21.852Z,21.84
2022-08-20T18:14:11.758Z,21.68
2022-08-20T18:16:16.782Z,21.6
2022-08-20T18:18:14.187Z,21.45
2022-08-20T18:20:15.375Z,21.19
2022-08-20T18:22:16.687Z,20.87
2022-08-20T18:24:18.105Z,20.81
2022-08-20T18:26:19.907Z,20.81
2022-08-20T18:28:20.840Z,20.72
2022-08-20T18:30:21.952Z,20.65
2022-08-20T18:32:23.095Z,20.77
2022-08-20T18:34:24.045Z,20.69
2022-08-20T18:36:25.435Z,20.61
2022-08-20T18:38:26.907Z,20.54
2022-08-20T18:40:28.355Z,20.5
2022-08-20T18:42:29.784Z,20.56
2022-08-20T18:44:31.491Z,20.36
2022-08-20T18:46:32.842Z,20.25
2022-08-20T18:48:34.289Z,20.08
2022-08-20T18:50:35.763Z,19.94
2022-08-20T18:52:36.754Z,19.82
2022-08-20T18:54:38.287Z,19.86
2022-08-20T18:56:39.820Z,20.01
2022-08-20T18:58:41.138Z,19.95
2022-08-20T19:00:42.971Z,19.8
2022-08-20T19:02:44.384Z,19.65
2022-08-20T19:04:46.073Z,19.65
2022-08-20T19:06:47.376Z,19.62
2022-08-20T19:10:50.338Z,19.2
2022-08-20T19:12:52.048Z,19.14
2022-08-20T19:14:53.103Z,19.34
2022-08-20T19:16:54.602Z,19.36
2022-08-20T19:18:55.828Z,19.29
2022-08-20T19:20:57.660Z,19.19
2022-08-20T19:22:58.725Z,19.07
2022-08-20T19:25:00.169Z,19.14
2022-08-20T19:27:01.923Z,19.22
2022-08-20T19:29:02.861Z,19.2
2022-08-20T19:31:04.080Z,19.1
2022-08-20T19:33:05.244Z,19
2022-08-20T19:35:06.548Z,18.83
2022-08-20T19:37:09.018Z,18.89
2022-08-20T19:39:08.662Z,18.93
2022-08-20T19:41:11.561Z,18.85
2022-08-20T19:43:11.192Z,18.86
2022-08-20T19:45:12.378Z,18.8
2022-08-20T19:47:18.004Z,18.81
2022-08-20T19:49:15.099Z,18.85
2022-08-20T19:51:15.935Z,18.95
2022-08-20T19:53:17.640Z,18.83
2022-08-20T19:55:18.615Z,18.81
2022-08-20T19:59:21.393Z,18.96
2022-08-20T20:01:22.984Z,18.86
2022-08-20T20:03:23.872Z,18.82
2022-08-20T20:05:24.951Z,18.9
2022-08-20T20:07:26.689Z,19.01
2022-08-20T20:09:27.745Z,18.9
2022-08-20T20:11:28.847Z,18.83
2022-08-20T20:13:30.261Z,18.79
2022-08-20T20:15:31.654Z,18.77
2022-08-20T20:17:32.853Z,18.69
2022-08-20T20:19:34.647Z,18.61
2022-08-20T20:21:36.070Z,18.52
2022-08-20T20:23:38.677Z,18.51
2022-08-20T20:25:38.867Z,18.5
2022-08-20T20:27:40.245Z,18.51
2022-08-20T20:29:41.685Z,18.65
2022-08-20T20:31:42.743Z,18.45
2022-08-20T20:33:44.469Z,18.32
2022-08-20T20:35:45.600Z,18.24
2022-08-20T20:37:50.365Z,18.07
2022-08-20T20:39:48.411Z,17.96
2022-08-20T20:41:49.732Z,17.81
2022-08-20T20:43:51.293Z,17.76
2022-08-20T20:45:52.808Z,17.69
2022-08-20T20:47:54.252Z,17.56
2022-08-20T20:49:55.383Z,17.45
2022-08-20T20:51:57.145Z,17.42
2022-08-20T20:53:58.731Z,17.36
2022-08-20T20:55:59.729Z,17.41
2022-08-20T20:58:02.501Z,17.44
2022-08-20T21:00:01.984Z,17.59
2022-08-20T21:02:03.189Z,17.64
2022-08-20T21:04:04.516Z,17.48
2022-08-20T21:06:06.006Z,17.37
2022-08-20T21:08:07.583Z,17.32
2022-08-20T21:10:08.735Z,17.3
2022-08-20T21:12:10.060Z,17.24
2022-08-20T21:14:11.910Z,17.25
2022-08-20T21:16:13.055Z,17.2
2022-08-20T21:18:14.154Z,17.25
2022-08-20T21:20:15.662Z,17.18
2022-08-20T21:22:17.342Z,17.12
2022-08-20T21:24:18.511Z,17.17
2022-08-20T21:26:20.205Z,17.22
2022-08-20T21:28:21.059Z,17.09
2022-08-20T21:30:22.320Z,17.03
2022-08-20T21:32:24.049Z,16.92
2022-08-20T21:34:25.808Z,16.82
2022-08-20T21:36:26.785Z,16.83
2022-08-20T21:40:30.434Z,16.88
2022-08-20T21:42:31.891Z,16.93
2022-08-20T21:44:33.239Z,16.88
2022-08-20T21:46:35.077Z,16.95
2022-08-20T21:48:36.118Z,16.97
2022-08-20T21:50:37.488Z,16.94
2022-08-20T21:52:38.048Z,16.94
2022-08-20T21:54:39.344Z,16.91
2022-08-20T21:56:40.694Z,16.89
2022-08-20T21:58:42.389Z,16.9
2022-08-20T22:00:43.554Z,16.83
2022-08-20T22:02:45.415Z,16.81
2022-08-20T22:04:47.103Z,16.77
2022-08-20T22:06:48.874Z,16.73
2022-08-20T22:08:50.712Z,16.76
2022-08-20T22:10:52.150Z,16.6
2022-08-20T22:12:54.058Z,16.5
2022-08-20T22:14:55.701Z,16.54
2022-08-20T22:16:56.835Z,16.52
2022-08-20T22:18:58.166Z,16.54
2022-08-20T22:20:59.567Z,16.52
2022-08-20T22:23:00.742Z,16.42
2022-08-20T22:25:02.442Z,16.39
2022-08-20T22:27:03.693Z,16.35
2022-08-20T22:29:05.015Z,16.34
2022-08-20T22:31:06.243Z,16.37
2022-08-20T22:33:07.943Z,16.46
2022-08-20T22:35:08.748Z,16.45
2022-08-20T22:37:09.637Z,16.43
2022-08-20T22:39:10.851Z,16.37
2022-08-20T22:41:11.997Z,16.32
2022-08-20T22:43:13.532Z,16.29
2022-08-20T22:45:15.336Z,16.35
2022-08-20T22:47:17.065Z,16.27
2022-08-20T22:49:18.941Z,16.18
2022-08-20T22:51:20.828Z,16.12
2022-08-20T22:53:21.800Z,16.02
2022-08-20T22:55:23.017Z,15.97
2022-08-20T22:57:24.037Z,15.85
2022-08-20T22:59:25.426Z,15.85
2022-08-20T23:01:27.093Z,16
2022-08-20T23:03:39.316Z,15.97
2022-08-20T23:05:30.350Z,15.86
2022-08-20T23:07:31.666Z,15.8
2022-08-20T23:09:33.251Z,15.78
2022-08-20T23:11:34.175Z,15.8
2022-08-20T23:13:35.933Z,15.78
2022-08-20T23:15:37.091Z,15.82
2022-08-20T23:17:38.197Z,15.85
2022-08-20T23:19:39.150Z,15.81
2022-08-20T23:21:40.188Z,15.73
2022-08-20T23:23:41.972Z,15.88
2022-08-20T23:25:43.499Z,15.82
2022-08-20T23:27:45.071Z,15.8
2022-08-20T23:29:46.841Z,15.8
2022-08-20T23:31:48.118Z,15.8
2022-08-20T23:33:49.764Z,15.9
2022-08-20T23:35:51.129Z,15.88
2022-08-20T23:37:52.488Z,15.73
2022-08-20T23:39:53.850Z,15.74
2022-08-20T23:41:54.816Z,15.7
2022-08-20T23:43:55.971Z,15.56
2022-08-20T23:45:56.908Z,15.5
2022-08-20T23:47:58.484Z,15.35
2022-08-20T23:49:59.948Z,15.44
2022-08-20T23:52:01.636Z,15.5
2022-08-20T23:54:02.897Z,15.5
2022-08-20T23:56:04.490Z,15.36
2022-08-20T23:58:06.001Z,15.26
